Terminal Aerodrome Forecast
Issued by NWS Los Angeles, CA

Home | Current Version | Previous Version | Text Only | Print | Product List | Glossary On
Versions: 1 2 3 4 5 6 7 8 9 10 11 12 13 14 15 16 17 18 19 20 21 22 23 24 25 26 27 28 29
000
FTUS46 KLOX 020548
TAFSMX
TAF
KSMX 020548Z 0206/0306 VRB03KT P6SM BKN200
     FM021100 VRB03KT P6SM OVC007
     FM021800 29010KT P6SM BKN200
     FM030300 VRB03KT P6SM BKN010=

USA.gov is the U.S. government's official web portal to all federal, state and local government web resources and services.